sensor_id;sensor_type;location;lat;lon;timestamp;P1;durP1;ratioP1;P2;durP2;ratioP2
3667;SDS011;24099;47.102;15.440;2022-12-10T00:01:57;3.67;;;1.73;;
3667;SDS011;24099;47.102;15.440;2022-12-10T00:04:26;2.28;;;1.52;;
3667;SDS011;24099;47.102;15.440;2022-12-10T00:06:53;2.42;;;2.22;;
3667;SDS011;24099;47.102;15.440;2022-12-10T00:09:21;2.15;;;1.50;;
3667;SDS011;24099;47.102;15.440;2022-12-10T00:11:49;3.25;;;1.90;;
3667;SDS011;24099;47.102;15.440;2022-12-10T00:14:17;2.08;;;1.35;;
3667;SDS011;24099;47.102;15.440;2022-12-10T00:16:44;5.63;;;2.78;;
3667;SDS011;24099;47.102;15.440;2022-12-10T00:19:12;22.27;;;3.67;;
3667;SDS011;24099;47.102;15.440;2022-12-10T00:21:41;8.15;;;4.28;;
3667;SDS011;24099;47.102;15.440;2022-12-10T00:24:10;8.25;;;2.53;;
3667;SDS011;24099;47.102;15.440;2022-12-10T00:26:38;3.35;;;2.17;;
3667;SDS011;24099;47.102;15.440;2022-12-10T00:29:07;3.75;;;1.85;;
3667;SDS011;24099;47.102;15.440;2022-12-10T00:31:37;1.67;;;1.58;;
3667;SDS011;24099;47.102;15.440;2022-12-10T00:34:07;4.50;;;1.88;;
3667;SDS011;24099;47.102;15.440;2022-12-10T00:36:37;4.20;;;1.65;;
3667;SDS011;24099;47.102;15.440;2022-12-10T00:39:09;3.33;;;1.88;;
3667;SDS011;24099;47.102;15.440;2022-12-10T00:41:38;3.10;;;1.67;;
3667;SDS011;24099;47.102;15.440;2022-12-10T00:44:05;3.90;;;2.08;;
3667;SDS011;24099;47.102;15.440;2022-12-10T00:46:33;2.08;;;1.65;;
3667;SDS011;24099;47.102;15.440;2022-12-10T00:49:01;5.07;;;2.05;;
3667;SDS011;24099;47.102;15.440;2022-12-10T00:51:30;7.93;;;2.58;;
3667;SDS011;24099;47.102;15.440;2022-12-10T00:53:58;1.42;;;1.33;;
3667;SDS011;24099;47.102;15.440;2022-12-10T00:56:27;7.93;;;2.15;;
3667;SDS011;24099;47.102;15.440;2022-12-10T00:58:56;1.55;;;1.45;;
3667;SDS011;24099;47.102;15.440;2022-12-10T01:01:25;1.60;;;1.30;;
3667;SDS011;24099;47.102;15.440;2022-12-10T01:03:57;2.10;;;1.42;;
3667;SDS011;24099;47.102;15.440;2022-12-10T01:06:28;2.92;;;1.55;;
3667;SDS011;24099;47.102;15.440;2022-12-10T01:08:57;1.17;;;1.10;;
3667;SDS011;24099;47.102;15.440;2022-12-10T01:11:28;1.98;;;1.40;;
3667;SDS011;24099;47.102;15.440;2022-12-10T01:13:58;4.75;;;1.80;;
3667;SDS011;24099;47.102;15.440;2022-12-10T01:16:26;1.30;;;1.25;;
3667;SDS011;24099;47.102;15.440;2022-12-10T01:18:54;2.40;;;1.25;;
3667;SDS011;24099;47.102;15.440;2022-12-10T01:21:25;2.88;;;1.40;;
3667;SDS011;24099;47.102;15.440;2022-12-10T01:23:54;4.43;;;1.95;;
3667;SDS011;24099;47.102;15.440;2022-12-10T01:26:25;1.50;;;1.40;;
3667;SDS011;24099;47.102;15.440;2022-12-10T01:28:56;2.28;;;1.88;;
3667;SDS011;24099;47.102;15.440;2022-12-10T01:31:25;1.95;;;1.83;;
3667;SDS011;24099;47.102;15.440;2022-12-10T01:33:54;1.50;;;1.30;;
3667;SDS011;24099;47.102;15.440;2022-12-10T01:36:27;1.92;;;1.83;;
3667;SDS011;24099;47.102;15.440;2022-12-10T01:38:56;3.15;;;1.42;;
3667;SDS011;24099;47.102;15.440;2022-12-10T01:41:25;4.95;;;2.13;;
3667;SDS011;24099;47.102;15.440;2022-12-10T01:43:56;2.05;;;1.85;;
3667;SDS011;24099;47.102;15.440;2022-12-10T01:46:27;1.58;;;1.35;;
3667;SDS011;24099;47.102;15.440;2022-12-10T01:48:56;1.77;;;1.38;;
3667;SDS011;24099;47.102;15.440;2022-12-10T01:51:26;6.40;;;1.95;;
3667;SDS011;24099;47.102;15.440;2022-12-10T01:53:56;3.28;;;2.53;;
3667;SDS011;24099;47.102;15.440;2022-12-10T01:56:24;4.72;;;2.30;;
3667;SDS011;24099;47.102;15.440;2022-12-10T01:58:54;3.95;;;1.90;;
3667;SDS011;24099;47.102;15.440;2022-12-10T02:01:25;2.83;;;1.45;;
3667;SDS011;24099;47.102;15.440;2022-12-10T02:04:01;1.83;;;1.70;;
3667;SDS011;24099;47.102;15.440;2022-12-10T02:06:41;3.35;;;1.70;;
3667;SDS011;24099;47.102;15.440;2022-12-10T02:09:19;2.35;;;1.40;;
3667;SDS011;24099;47.102;15.440;2022-12-10T02:12:00;7.05;;;1.38;;
3667;SDS011;24099;47.102;15.440;2022-12-10T02:14:39;1.60;;;1.10;;
3667;SDS011;24099;47.102;15.440;2022-12-10T02:17:16;6.85;;;3.05;;
3667;SDS011;24099;47.102;15.440;2022-12-10T02:19:52;18.27;;;2.75;;
3667;SDS011;24099;47.102;15.440;2022-12-10T02:22:29;2.40;;;1.63;;
3667;SDS011;24099;47.102;15.440;2022-12-10T02:24:59;2.60;;;1.63;;
3667;SDS011;24099;47.102;15.440;2022-12-10T02:27:35;5.43;;;2.78;;
3667;SDS011;24099;47.102;15.440;2022-12-10T02:30:12;1.50;;;1.35;;
3667;SDS011;24099;47.102;15.440;2022-12-10T02:32:40;2.33;;;1.60;;
3667;SDS011;24099;47.102;15.440;2022-12-10T02:35:14;3.63;;;2.20;;
3667;SDS011;24099;47.102;15.440;2022-12-10T02:37:46;2.15;;;1.80;;
3667;SDS011;24099;47.102;15.440;2022-12-10T02:40:18;2.15;;;1.65;;
3667;SDS011;24099;47.102;15.440;2022-12-10T02:42:53;3.30;;;2.42;;
3667;SDS011;24099;47.102;15.440;2022-12-10T02:45:23;2.22;;;1.75;;
3667;SDS011;24099;47.102;15.440;2022-12-10T02:47:54;2.47;;;1.88;;
3667;SDS011;24099;47.102;15.440;2022-12-10T02:50:30;9.27;;;1.67;;
3667;SDS011;24099;47.102;15.440;2022-12-10T02:52:58;2.80;;;2.17;;
3667;SDS011;24099;47.102;15.440;2022-12-10T02:55:26;2.55;;;1.60;;
3667;SDS011;24099;47.102;15.440;2022-12-10T02:58:01;4.05;;;2.45;;
3667;SDS011;24099;47.102;15.440;2022-12-10T03:00:39;1.92;;;1.70;;
3667;SDS011;24099;47.102;15.440;2022-12-10T03:03:17;3.90;;;2.15;;
3667;SDS011;24099;47.102;15.440;2022-12-10T03:06:02;2.50;;;1.88;;
3667;SDS011;24099;47.102;15.440;2022-12-10T03:11:07;2.55;;;2.05;;
3667;SDS011;24099;47.102;15.440;2022-12-10T03:13:40;4.13;;;1.80;;
3667;SDS011;24099;47.102;15.440;2022-12-10T03:16:16;3.45;;;2.00;;
3667;SDS011;24099;47.102;15.440;2022-12-10T03:18:48;2.92;;;1.75;;
3667;SDS011;24099;47.102;15.440;2022-12-10T03:21:19;2.28;;;2.08;;
3667;SDS011;24099;47.102;15.440;2022-12-10T03:23:50;1.92;;;1.70;;
3667;SDS011;24099;47.102;15.440;2022-12-10T03:26:18;1.63;;;1.25;;
3667;SDS011;24099;47.102;15.440;2022-12-10T03:28:49;3.25;;;1.70;;
3667;SDS011;24099;47.102;15.440;2022-12-10T03:31:22;4.55;;;2.72;;
3667;SDS011;24099;47.102;15.440;2022-12-10T03:33:50;1.98;;;1.60;;
3667;SDS011;24099;47.102;15.440;2022-12-10T03:36:20;1.95;;;1.33;;
3667;SDS011;24099;47.102;15.440;2022-12-10T03:38:48;3.30;;;1.88;;
3667;SDS011;24099;47.102;15.440;2022-12-10T03:41:17;2.47;;;1.30;;
3667;SDS011;24099;47.102;15.440;2022-12-10T03:43:52;2.92;;;1.83;;
3667;SDS011;24099;47.102;15.440;2022-12-10T03:46:22;2.42;;;1.95;;
3667;SDS011;24099;47.102;15.440;2022-12-10T03:48:52;2.08;;;1.85;;
3667;SDS011;24099;47.102;15.440;2022-12-10T03:51:19;1.50;;;1.40;;
3667;SDS011;24099;47.102;15.440;2022-12-10T03:53:51;3.95;;;1.70;;
3667;SDS011;24099;47.102;15.440;2022-12-10T03:56:18;1.60;;;1.13;;
3667;SDS011;24099;47.102;15.440;2022-12-10T03:58:47;1.40;;;1.30;;
3667;SDS011;24099;47.102;15.440;2022-12-10T04:01:15;2.67;;;1.65;;
3667;SDS011;24099;47.102;15.440;2022-12-10T04:03:44;2.58;;;1.77;;
3667;SDS011;24099;47.102;15.440;2022-12-10T04:06:13;2.28;;;2.08;;
3667;SDS011;24099;47.102;15.440;2022-12-10T04:08:42;2.10;;;1.40;;
3667;SDS011;24099;47.102;15.440;2022-12-10T04:11:11;3.17;;;2.25;;
3667;SDS011;24099;47.102;15.440;2022-12-10T04:13:39;2.70;;;1.48;;
3667;SDS011;24099;47.102;15.440;2022-12-10T04:16:25;4.37;;;1.10;;
3667;SDS011;24099;47.102;15.440;2022-12-10T04:18:55;3.65;;;1.67;;
3667;SDS011;24099;47.102;15.440;2022-12-10T04:21:24;4.28;;;1.63;;
3667;SDS011;24099;47.102;15.440;2022-12-10T04:24:10;2.45;;;1.35;;
3667;SDS011;24099;47.102;15.440;2022-12-10T04:26:56;3.53;;;1.88;;
3667;SDS011;24099;47.102;15.440;2022-12-10T04:29:28;2.78;;;1.75;;
3667;SDS011;24099;47.102;15.440;2022-12-10T04:31:57;6.10;;;2.28;;
3667;SDS011;24099;47.102;15.440;2022-12-10T04:34:26;2.20;;;1.90;;
3667;SDS011;24099;47.102;15.440;2022-12-10T04:36:57;1.73;;;1.38;;
3667;SDS011;24099;47.102;15.440;2022-12-10T04:39:25;1.73;;;1.27;;
3667;SDS011;24099;47.102;15.440;2022-12-10T04:41:53;6.68;;;2.25;;
3667;SDS011;24099;47.102;15.440;2022-12-10T04:44:23;7.28;;;1.95;;
3667;SDS011;24099;47.102;15.440;2022-12-10T04:46:51;3.15;;;2.17;;
3667;SDS011;24099;47.102;15.440;2022-12-10T04:49:19;3.13;;;1.60;;
3667;SDS011;24099;47.102;15.440;2022-12-10T04:51:48;6.00;;;1.95;;
3667;SDS011;24099;47.102;15.440;2022-12-10T04:54:17;2.03;;;1.58;;
3667;SDS011;24099;47.102;15.440;2022-12-10T04:56:45;3.22;;;1.98;;
3667;SDS011;24099;47.102;15.440;2022-12-10T04:59:13;2.42;;;1.27;;
3667;SDS011;24099;47.102;15.440;2022-12-10T05:01:43;2.60;;;1.60;;
3667;SDS011;24099;47.102;15.440;2022-12-10T05:04:12;2.53;;;2.03;;
3667;SDS011;24099;47.102;15.440;2022-12-10T05:06:40;7.00;;;2.00;;
3667;SDS011;24099;47.102;15.440;2022-12-10T05:09:10;1.65;;;1.38;;
3667;SDS011;24099;47.102;15.440;2022-12-10T05:11:38;3.50;;;1.92;;
3667;SDS011;24099;47.102;15.440;2022-12-10T05:14:08;2.42;;;2.17;;
3667;SDS011;24099;47.102;15.440;2022-12-10T05:16:37;3.17;;;1.95;;
3667;SDS011;24099;47.102;15.440;2022-12-10T05:19:05;3.03;;;1.70;;
3667;SDS011;24099;47.102;15.440;2022-12-10T05:21:34;1.83;;;1.67;;
3667;SDS011;24099;47.102;15.440;2022-12-10T05:24:20;2.53;;;1.75;;
3667;SDS011;24099;47.102;15.440;2022-12-10T05:26:48;1.38;;;1.27;;
3667;SDS011;24099;47.102;15.440;2022-12-10T05:29:16;2.75;;;1.95;;
3667;SDS011;24099;47.102;15.440;2022-12-10T05:31:45;1.58;;;1.45;;
3667;SDS011;24099;47.102;15.440;2022-12-10T05:34:13;2.90;;;1.90;;
3667;SDS011;24099;47.102;15.440;2022-12-10T05:36:40;3.10;;;1.58;;
3667;SDS011;24099;47.102;15.440;2022-12-10T05:39:10;2.50;;;1.67;;
3667;SDS011;24099;47.102;15.440;2022-12-10T05:41:39;1.60;;;1.50;;
3667;SDS011;24099;47.102;15.440;2022-12-10T05:44:09;1.65;;;1.48;;
3667;SDS011;24099;47.102;15.440;2022-12-10T05:46:37;1.60;;;1.50;;
3667;SDS011;24099;47.102;15.440;2022-12-10T05:49:05;2.65;;;1.70;;
3667;SDS011;24099;47.102;15.440;2022-12-10T05:51:34;3.78;;;2.53;;
3667;SDS011;24099;47.102;15.440;2022-12-10T05:54:04;2.80;;;1.75;;
3667;SDS011;24099;47.102;15.440;2022-12-10T05:56:34;1.58;;;1.48;;
3667;SDS011;24099;47.102;15.440;2022-12-10T05:59:06;3.03;;;1.85;;
3667;SDS011;24099;47.102;15.440;2022-12-10T06:01:34;1.55;;;1.20;;
3667;SDS011;24099;47.102;15.440;2022-12-10T06:04:02;2.55;;;1.80;;
3667;SDS011;24099;47.102;15.440;2022-12-10T06:06:31;3.90;;;1.50;;
3667;SDS011;24099;47.102;15.440;2022-12-10T06:09:00;2.47;;;1.33;;
3667;SDS011;24099;47.102;15.440;2022-12-10T06:11:28;3.35;;;1.73;;
3667;SDS011;24099;47.102;15.440;2022-12-10T06:13:56;2.22;;;1.50;;
3667;SDS011;24099;47.102;15.440;2022-12-10T06:16:27;1.63;;;1.52;;
3667;SDS011;24099;47.102;15.440;2022-12-10T06:18:55;1.50;;;1.40;;
3667;SDS011;24099;47.102;15.440;2022-12-10T06:21:23;1.63;;;1.40;;
3667;SDS011;24099;47.102;15.440;2022-12-10T06:23:55;7.53;;;1.13;;
3667;SDS011;24099;47.102;15.440;2022-12-10T06:26:24;3.85;;;1.85;;
3667;SDS011;24099;47.102;15.440;2022-12-10T06:28:52;1.73;;;1.35;;
3667;SDS011;24099;47.102;15.440;2022-12-10T06:31:20;2.05;;;1.70;;
3667;SDS011;24099;47.102;15.440;2022-12-10T06:33:50;2.55;;;1.55;;
3667;SDS011;24099;47.102;15.440;2022-12-10T06:36:19;2.97;;;1.77;;
3667;SDS011;24099;47.102;15.440;2022-12-10T06:38:47;2.00;;;1.52;;
3667;SDS011;24099;47.102;15.440;2022-12-10T06:41:16;1.20;;;1.10;;
3667;SDS011;24099;47.102;15.440;2022-12-10T06:43:45;1.50;;;1.20;;
3667;SDS011;24099;47.102;15.440;2022-12-10T06:46:14;1.08;;;1.08;;
3667;SDS011;24099;47.102;15.440;2022-12-10T06:48:44;1.40;;;1.30;;
3667;SDS011;24099;47.102;15.440;2022-12-10T06:51:14;1.10;;;1.00;;
3667;SDS011;24099;47.102;15.440;2022-12-10T06:53:45;2.65;;;1.77;;
3667;SDS011;24099;47.102;15.440;2022-12-10T06:56:14;3.45;;;2.15;;
3667;SDS011;24099;47.102;15.440;2022-12-10T06:58:43;2.63;;;1.77;;
3667;SDS011;24099;47.102;15.440;2022-12-10T07:01:12;2.67;;;1.60;;
3667;SDS011;24099;47.102;15.440;2022-12-10T07:03:41;2.60;;;1.90;;
3667;SDS011;24099;47.102;15.440;2022-12-10T07:06:10;2.42;;;1.88;;
3667;SDS011;24099;47.102;15.440;2022-12-10T07:08:39;2.03;;;1.60;;
3667;SDS011;24099;47.102;15.440;2022-12-10T07:11:08;4.00;;;2.30;;
3667;SDS011;24099;47.102;15.440;2022-12-10T07:13:38;8.65;;;2.72;;
3667;SDS011;24099;47.102;15.440;2022-12-10T07:16:11;2.20;;;1.80;;
3667;SDS011;24099;47.102;15.440;2022-12-10T07:18:39;4.43;;;1.90;;
3667;SDS011;24099;47.102;15.440;2022-12-10T07:21:17;1.67;;;1.52;;
3667;SDS011;24099;47.102;15.440;2022-12-10T07:23:47;3.80;;;1.73;;
3667;SDS011;24099;47.102;15.440;2022-12-10T07:26:16;1.35;;;1.25;;
3667;SDS011;24099;47.102;15.440;2022-12-10T07:28:43;4.05;;;2.10;;
3667;SDS011;24099;47.102;15.440;2022-12-10T07:31:11;4.63;;;1.70;;
3667;SDS011;24099;47.102;15.440;2022-12-10T07:33:39;3.53;;;2.03;;
3667;SDS011;24099;47.102;15.440;2022-12-10T07:36:07;3.30;;;2.10;;
3667;SDS011;24099;47.102;15.440;2022-12-10T07:38:36;9.75;;;2.10;;
3667;SDS011;24099;47.102;15.440;2022-12-10T07:41:07;3.40;;;1.85;;
3667;SDS011;24099;47.102;15.440;2022-12-10T07:43:37;1.73;;;1.60;;
3667;SDS011;24099;47.102;15.440;2022-12-10T07:46:06;4.95;;;1.85;;
3667;SDS011;24099;47.102;15.440;2022-12-10T07:48:35;2.50;;;1.58;;
3667;SDS011;24099;47.102;15.440;2022-12-10T07:51:04;2.67;;;1.55;;
3667;SDS011;24099;47.102;15.440;2022-12-10T07:53:32;2.47;;;1.33;;
3667;SDS011;24099;47.102;15.440;2022-12-10T07:56:01;2.00;;;1.30;;
3667;SDS011;24099;47.102;15.440;2022-12-10T07:58:31;4.63;;;2.42;;
3667;SDS011;24099;47.102;15.440;2022-12-10T08:00:58;4.20;;;2.08;;
3667;SDS011;24099;47.102;15.440;2022-12-10T08:03:31;1.27;;;1.15;;
3667;SDS011;24099;47.102;15.440;2022-12-10T08:06:02;3.10;;;1.67;;
3667;SDS011;24099;47.102;15.440;2022-12-10T08:08:32;3.42;;;2.08;;
3667;SDS011;24099;47.102;15.440;2022-12-10T08:11:00;2.50;;;0.93;;
3667;SDS011;24099;47.102;15.440;2022-12-10T08:13:28;1.75;;;1.63;;
3667;SDS011;24099;47.102;15.440;2022-12-10T08:16:00;1.63;;;1.52;;
3667;SDS011;24099;47.102;15.440;2022-12-10T08:18:28;3.42;;;2.00;;
3667;SDS011;24099;47.102;15.440;2022-12-10T08:20:56;3.00;;;1.75;;
3667;SDS011;24099;47.102;15.440;2022-12-10T08:23:24;1.77;;;1.20;;
3667;SDS011;24099;47.102;15.440;2022-12-10T08:25:51;2.75;;;1.30;;
3667;SDS011;24099;47.102;15.440;2022-12-10T08:28:19;2.78;;;1.23;;
3667;SDS011;24099;47.102;15.440;2022-12-10T08:30:48;1.65;;;1.15;;
3667;SDS011;24099;47.102;15.440;2022-12-10T08:33:16;13.43;;;2.47;;
3667;SDS011;24099;47.102;15.440;2022-12-10T08:35:43;2.13;;;1.42;;
3667;SDS011;24099;47.102;15.440;2022-12-10T08:38:11;2.38;;;1.70;;
3667;SDS011;24099;47.102;15.440;2022-12-10T08:40:39;3.05;;;1.52;;
3667;SDS011;24099;47.102;15.440;2022-12-10T08:43:07;1.60;;;1.50;;
3667;SDS011;24099;47.102;15.440;2022-12-10T08:45:35;1.88;;;1.73;;
3667;SDS011;24099;47.102;15.440;2022-12-10T08:48:04;3.30;;;2.33;;
3667;SDS011;24099;47.102;15.440;2022-12-10T08:50:32;1.77;;;1.48;;
3667;SDS011;24099;47.102;15.440;2022-12-10T08:52:59;2.55;;;1.92;;
3667;SDS011;24099;47.102;15.440;2022-12-10T08:55:27;3.65;;;2.58;;
3667;SDS011;24099;47.102;15.440;2022-12-10T08:57:55;2.72;;;2.13;;
3667;SDS011;24099;47.102;15.440;2022-12-10T09:00:23;3.75;;;1.38;;
3667;SDS011;24099;47.102;15.440;2022-12-10T09:02:51;3.28;;;1.70;;
3667;SDS011;24099;47.102;15.440;2022-12-10T09:05:20;2.95;;;1.92;;
3667;SDS011;24099;47.102;15.440;2022-12-10T09:07:47;4.80;;;2.05;;
3667;SDS011;24099;47.102;15.440;2022-12-10T09:10:15;1.83;;;1.35;;
3667;SDS011;24099;47.102;15.440;2022-12-10T09:12:45;3.58;;;1.73;;
3667;SDS011;24099;47.102;15.440;2022-12-10T09:15:13;1.85;;;1.55;;
3667;SDS011;24099;47.102;15.440;2022-12-10T09:17:40;2.72;;;1.42;;
3667;SDS011;24099;47.102;15.440;2022-12-10T09:20:08;2.35;;;1.65;;
3667;SDS011;24099;47.102;15.440;2022-12-10T09:22:38;2.30;;;1.77;;
3667;SDS011;24099;47.102;15.440;2022-12-10T09:25:06;3.67;;;2.08;;
3667;SDS011;24099;47.102;15.440;2022-12-10T09:27:35;3.08;;;1.65;;
3667;SDS011;24099;47.102;15.440;2022-12-10T09:30:03;1.25;;;1.15;;
3667;SDS011;24099;47.102;15.440;2022-12-10T09:32:32;5.65;;;1.65;;
3667;SDS011;24099;47.102;15.440;2022-12-10T09:34:59;2.17;;;1.48;;
3667;SDS011;24099;47.102;15.440;2022-12-10T09:37:27;2.47;;;1.13;;
3667;SDS011;24099;47.102;15.440;2022-12-10T09:39:56;4.20;;;1.63;;
3667;SDS011;24099;47.102;15.440;2022-12-10T09:42:28;4.68;;;1.75;;
3667;SDS011;24099;47.102;15.440;2022-12-10T09:45:09;1.40;;;1.30;;
3667;SDS011;24099;47.102;15.440;2022-12-10T09:47:45;1.42;;;1.33;;
3667;SDS011;24099;47.102;15.440;2022-12-10T09:50:23;3.55;;;2.10;;
3667;SDS011;24099;47.102;15.440;2022-12-10T09:52:57;2.65;;;1.65;;
3667;SDS011;24099;47.102;15.440;2022-12-10T09:55:30;3.42;;;2.05;;
3667;SDS011;24099;47.102;15.440;2022-12-10T09:58:01;2.40;;;1.42;;
3667;SDS011;24099;47.102;15.440;2022-12-10T10:00:33;2.08;;;1.65;;
3667;SDS011;24099;47.102;15.440;2022-12-10T10:03:03;0.98;;;0.93;;
3667;SDS011;24099;47.102;15.440;2022-12-10T10:05:33;3.42;;;1.85;;
3667;SDS011;24099;47.102;15.440;2022-12-10T10:08:04;1.98;;;1.20;;
3667;SDS011;24099;47.102;15.440;2022-12-10T10:10:40;2.03;;;1.63;;
3667;SDS011;24099;47.102;15.440;2022-12-10T10:13:16;1.80;;;1.10;;
3667;SDS011;24099;47.102;15.440;2022-12-10T10:15:52;1.08;;;0.88;;
3667;SDS011;24099;47.102;15.440;2022-12-10T10:18:23;2.13;;;1.33;;
3667;SDS011;24099;47.102;15.440;2022-12-10T10:20:58;2.72;;;1.02;;
3667;SDS011;24099;47.102;15.440;2022-12-10T10:23:27;2.90;;;1.48;;
3667;SDS011;24099;47.102;15.440;2022-12-10T10:25:56;3.03;;;1.50;;
3667;SDS011;24099;47.102;15.440;2022-12-10T10:28:24;3.13;;;1.75;;
3667;SDS011;24099;47.102;15.440;2022-12-10T10:30:52;2.50;;;1.55;;
3667;SDS011;24099;47.102;15.440;2022-12-10T10:33:20;2.20;;;1.27;;
3667;SDS011;24099;47.102;15.440;2022-12-10T10:35:48;1.02;;;0.77;;
3667;SDS011;24099;47.102;15.440;2022-12-10T10:38:21;3.45;;;1.75;;
3667;SDS011;24099;47.102;15.440;2022-12-10T10:40:50;2.70;;;1.67;;
3667;SDS011;24099;47.102;15.440;2022-12-10T10:43:22;1.67;;;1.33;;
3667;SDS011;24099;47.102;15.440;2022-12-10T10:45:56;2.55;;;1.63;;
3667;SDS011;24099;47.102;15.440;2022-12-10T10:48:27;1.90;;;1.33;;
3667;SDS011;24099;47.102;15.440;2022-12-10T10:50:57;1.48;;;0.73;;
3667;SDS011;24099;47.102;15.440;2022-12-10T10:53:35;1.58;;;1.33;;
3667;SDS011;24099;47.102;15.440;2022-12-10T10:56:11;0.75;;;0.75;;
3667;SDS011;24099;47.102;15.440;2022-12-10T10:58:49;1.33;;;1.23;;
3667;SDS011;24099;47.102;15.440;2022-12-10T11:01:20;2.25;;;1.17;;
3667;SDS011;24099;47.102;15.440;2022-12-10T11:03:53;2.30;;;1.15;;
3667;SDS011;24099;47.102;15.440;2022-12-10T11:06:23;0.55;;;0.55;;
3667;SDS011;24099;47.102;15.440;2022-12-10T11:08:53;0.80;;;0.80;;
3667;SDS011;24099;47.102;15.440;2022-12-10T11:11:25;2.85;;;1.00;;
3667;SDS011;24099;47.102;15.440;2022-12-10T11:14:14;0.88;;;0.73;;
3667;SDS011;24099;47.102;15.440;2022-12-10T11:16:48;0.70;;;0.68;;
3667;SDS011;24099;47.102;15.440;2022-12-10T11:19:18;1.10;;;0.98;;
3667;SDS011;24099;47.102;15.440;2022-12-10T11:21:48;1.50;;;0.88;;
3667;SDS011;24099;47.102;15.440;2022-12-10T11:24:16;0.70;;;0.70;;
3667;SDS011;24099;47.102;15.440;2022-12-10T11:26:48;1.45;;;1.20;;
3667;SDS011;24099;47.102;15.440;2022-12-10T11:29:31;1.23;;;0.80;;
3667;SDS011;24099;47.102;15.440;2022-12-10T11:32:20;0.40;;;0.40;;
3667;SDS011;24099;47.102;15.440;2022-12-10T11:35:07;0.75;;;0.73;;
3667;SDS011;24099;47.102;15.440;2022-12-10T11:37:39;2.05;;;0.50;;
3667;SDS011;24099;47.102;15.440;2022-12-10T11:40:20;5.47;;;1.73;;
3667;SDS011;24099;47.102;15.440;2022-12-10T11:42:57;1.08;;;0.63;;
3667;SDS011;24099;47.102;15.440;2022-12-10T11:45:52;0.40;;;0.40;;
3667;SDS011;24099;47.102;15.440;2022-12-10T11:48:30;0.60;;;0.60;;
3667;SDS011;24099;47.102;15.440;2022-12-10T11:51:15;2.63;;;1.20;;
3667;SDS011;24099;47.102;15.440;2022-12-10T11:53:55;2.67;;;0.60;;
3667;SDS011;24099;47.102;15.440;2022-12-10T11:56:34;1.33;;;0.95;;
3667;SDS011;24099;47.102;15.440;2022-12-10T11:59:10;1.15;;;0.93;;
3667;SDS011;24099;47.102;15.440;2022-12-10T12:04:46;1.52;;;0.98;;
3667;SDS011;24099;47.102;15.440;2022-12-10T12:07:30;0.63;;;0.63;;
3667;SDS011;24099;47.102;15.440;2022-12-10T12:10:17;0.50;;;0.38;;
3667;SDS011;24099;47.102;15.440;2022-12-10T12:13:02;1.33;;;1.00;;
3667;SDS011;24099;47.102;15.440;2022-12-10T12:15:36;0.95;;;0.80;;
3667;SDS011;24099;47.102;15.440;2022-12-10T12:18:09;1.00;;;0.73;;
3667;SDS011;24099;47.102;15.440;2022-12-10T12:20:45;2.33;;;0.77;;
3667;SDS011;24099;47.102;15.440;2022-12-10T12:23:19;1.52;;;0.90;;
3667;SDS011;24099;47.102;15.440;2022-12-10T12:25:53;3.17;;;0.95;;
3667;SDS011;24099;47.102;15.440;2022-12-10T12:28:28;1.35;;;0.82;;
3667;SDS011;24099;47.102;15.440;2022-12-10T12:31:02;0.85;;;0.60;;
3667;SDS011;24099;47.102;15.440;2022-12-10T12:33:38;2.60;;;0.77;;
3667;SDS011;24099;47.102;15.440;2022-12-10T12:36:09;0.75;;;0.75;;
3667;SDS011;24099;47.102;15.440;2022-12-10T12:38:44;0.88;;;0.88;;
3667;SDS011;24099;47.102;15.440;2022-12-10T12:41:21;0.50;;;0.50;;
3667;SDS011;24099;47.102;15.440;2022-12-10T12:43:58;1.40;;;0.80;;
3667;SDS011;24099;47.102;15.440;2022-12-10T12:46:32;0.82;;;0.82;;
3667;SDS011;24099;47.102;15.440;2022-12-10T12:49:10;0.95;;;0.95;;
3667;SDS011;24099;47.102;15.440;2022-12-10T12:51:48;0.60;;;0.52;;
3667;SDS011;24099;47.102;15.440;2022-12-10T12:54:19;1.17;;;1.13;;
3667;SDS011;24099;47.102;15.440;2022-12-10T12:56:55;0.70;;;0.70;;
3667;SDS011;24099;47.102;15.440;2022-12-10T13:02:22;0.55;;;0.55;;
3667;SDS011;24099;47.102;15.440;2022-12-10T13:05:17;0.65;;;0.65;;
3667;SDS011;24099;47.102;15.440;2022-12-10T13:10:52;0.70;;;0.70;;
3667;SDS011;24099;47.102;15.440;2022-12-10T13:13:23;1.27;;;1.08;;
3667;SDS011;24099;47.102;15.440;2022-12-10T13:15:55;0.70;;;0.70;;
3667;SDS011;24099;47.102;15.440;2022-12-10T13:18:43;0.93;;;0.82;;
3667;SDS011;24099;47.102;15.440;2022-12-10T13:21:25;1.08;;;1.08;;
3667;SDS011;24099;47.102;15.440;2022-12-10T13:24:07;2.35;;;0.90;;
3667;SDS011;24099;47.102;15.440;2022-12-10T13:26:40;0.55;;;0.55;;
3667;SDS011;24099;47.102;15.440;2022-12-10T13:29:26;2.33;;;1.00;;
3667;SDS011;24099;47.102;15.440;2022-12-10T13:31:55;1.95;;;1.40;;
3667;SDS011;24099;47.102;15.440;2022-12-10T13:34:32;1.30;;;1.20;;
3667;SDS011;24099;47.102;15.440;2022-12-10T13:37:04;1.95;;;1.15;;
3667;SDS011;24099;47.102;15.440;2022-12-10T13:39:58;0.68;;;0.68;;
3667;SDS011;24099;47.102;15.440;2022-12-10T13:42:38;1.38;;;1.00;;
3667;SDS011;24099;47.102;15.440;2022-12-10T13:45:31;3.22;;;0.98;;
3667;SDS011;24099;47.102;15.440;2022-12-10T13:48:17;1.75;;;1.38;;
3667;SDS011;24099;47.102;15.440;2022-12-10T13:50:56;0.88;;;0.88;;
3667;SDS011;24099;47.102;15.440;2022-12-10T13:53:47;1.23;;;0.77;;
3667;SDS011;24099;47.102;15.440;2022-12-10T13:56:25;1.00;;;0.88;;
3667;SDS011;24099;47.102;15.440;2022-12-10T13:58:59;1.02;;;0.63;;
3667;SDS011;24099;47.102;15.440;2022-12-10T14:01:42;1.40;;;1.25;;
3667;SDS011;24099;47.102;15.440;2022-12-10T14:04:21;0.93;;;0.85;;
3667;SDS011;24099;47.102;15.440;2022-12-10T14:07:01;1.33;;;0.70;;
3667;SDS011;24099;47.102;15.440;2022-12-10T14:09:31;0.50;;;0.50;;
3667;SDS011;24099;47.102;15.440;2022-12-10T14:12:05;0.60;;;0.50;;
3667;SDS011;24099;47.102;15.440;2022-12-10T14:14:38;1.92;;;0.77;;
3667;SDS011;24099;47.102;15.440;2022-12-10T14:17:10;0.40;;;0.40;;
3667;SDS011;24099;47.102;15.440;2022-12-10T14:19:41;1.40;;;0.90;;
3667;SDS011;24099;47.102;15.440;2022-12-10T14:22:12;0.50;;;0.50;;
3667;SDS011;24099;47.102;15.440;2022-12-10T14:24:44;0.98;;;0.70;;
3667;SDS011;24099;47.102;15.440;2022-12-10T14:27:17;0.73;;;0.70;;
3667;SDS011;24099;47.102;15.440;2022-12-10T14:29:46;0.63;;;0.63;;
3667;SDS011;24099;47.102;15.440;2022-12-10T14:32:15;0.45;;;0.45;;
3667;SDS011;24099;47.102;15.440;2022-12-10T14:34:46;1.15;;;0.98;;
3667;SDS011;24099;47.102;15.440;2022-12-10T14:37:19;1.23;;;1.10;;
3667;SDS011;24099;47.102;15.440;2022-12-10T14:39:51;0.90;;;0.80;;
3667;SDS011;24099;47.102;15.440;2022-12-10T14:42:20;2.90;;;0.85;;
3667;SDS011;24099;47.102;15.440;2022-12-10T14:44:50;2.50;;;1.80;;
3667;SDS011;24099;47.102;15.440;2022-12-10T14:47:22;7.47;;;4.72;;
3667;SDS011;24099;47.102;15.440;2022-12-10T14:49:50;6.88;;;3.25;;
3667;SDS011;24099;47.102;15.440;2022-12-10T14:52:20;1.65;;;1.55;;
3667;SDS011;24099;47.102;15.440;2022-12-10T14:54:51;2.63;;;1.27;;
3667;SDS011;24099;47.102;15.440;2022-12-10T14:57:21;1.23;;;0.75;;
3667;SDS011;24099;47.102;15.440;2022-12-10T14:59:54;0.65;;;0.65;;
3667;SDS011;24099;47.102;15.440;2022-12-10T15:02:29;0.68;;;0.68;;
3667;SDS011;24099;47.102;15.440;2022-12-10T15:04:59;0.70;;;0.70;;
3667;SDS011;24099;47.102;15.440;2022-12-10T15:07:30;1.58;;;0.80;;
3667;SDS011;24099;47.102;15.440;2022-12-10T15:10:04;0.50;;;0.50;;
3667;SDS011;24099;47.102;15.440;2022-12-10T15:12:36;1.65;;;0.65;;
3667;SDS011;24099;47.102;15.440;2022-12-10T15:15:11;0.77;;;0.73;;
3667;SDS011;24099;47.102;15.440;2022-12-10T15:17:43;0.65;;;0.65;;
3667;SDS011;24099;47.102;15.440;2022-12-10T15:20:23;1.10;;;0.90;;
3667;SDS011;24099;47.102;15.440;2022-12-10T15:22:52;1.40;;;1.30;;
3667;SDS011;24099;47.102;15.440;2022-12-10T15:25:24;3.47;;;0.85;;
3667;SDS011;24099;47.102;15.440;2022-12-10T15:27:55;3.17;;;0.85;;